sensor_id;sensor_type;location;lat;lon;timestamp;P1;durP1;ratioP1;P2;durP2;ratioP2
12986;SDS011;58897;51.960;5.582;2024-03-25T00:02:09;5.28;;;2.63;;
12986;SDS011;58897;51.960;5.582;2024-03-25T00:04:35;5.35;;;1.85;;
12986;SDS011;58897;51.960;5.582;2024-03-25T00:07:01;5.32;;;2.20;;
12986;SDS011;58897;51.960;5.582;2024-03-25T00:09:27;8.27;;;2.22;;
12986;SDS011;58897;51.960;5.582;2024-03-25T00:11:53;10.25;;;2.10;;
12986;SDS011;58897;51.960;5.582;2024-03-25T00:14:22;6.95;;;1.73;;
12986;SDS011;58897;51.960;5.582;2024-03-25T00:16:49;7.93;;;2.47;;
12986;SDS011;58897;51.960;5.582;2024-03-25T00:19:15;10.20;;;1.90;;
12986;SDS011;58897;51.960;5.582;2024-03-25T00:21:41;8.57;;;2.10;;
12986;SDS011;58897;51.960;5.582;2024-03-25T00:24:07;3.42;;;1.50;;
12986;SDS011;58897;51.960;5.582;2024-03-25T00:26:33;5.85;;;2.10;;
12986;SDS011;58897;51.960;5.582;2024-03-25T00:28:59;3.80;;;1.60;;
12986;SDS011;58897;51.960;5.582;2024-03-25T00:31:24;8.48;;;1.88;;
12986;SDS011;58897;51.960;5.582;2024-03-25T00:33:50;8.48;;;2.35;;
12986;SDS011;58897;51.960;5.582;2024-03-25T00:36:15;2.20;;;1.13;;
12986;SDS011;58897;51.960;5.582;2024-03-25T00:38:41;11.30;;;2.00;;
12986;SDS011;58897;51.960;5.582;2024-03-25T00:41:08;7.15;;;2.42;;
12986;SDS011;58897;51.960;5.582;2024-03-25T00:43:34;9.48;;;2.35;;
12986;SDS011;58897;51.960;5.582;2024-03-25T00:45:59;10.23;;;2.75;;
12986;SDS011;58897;51.960;5.582;2024-03-25T00:48:25;8.25;;;2.17;;
12986;SDS011;58897;51.960;5.582;2024-03-25T00:50:51;4.03;;;2.30;;
12986;SDS011;58897;51.960;5.582;2024-03-25T00:53:16;3.88;;;1.92;;
12986;SDS011;58897;51.960;5.582;2024-03-25T00:55:43;15.88;;;2.80;;
12986;SDS011;58897;51.960;5.582;2024-03-25T00:58:09;9.00;;;2.28;;
12986;SDS011;58897;51.960;5.582;2024-03-25T01:00:35;7.35;;;2.65;;
12986;SDS011;58897;51.960;5.582;2024-03-25T01:03:01;7.15;;;2.17;;
12986;SDS011;58897;51.960;5.582;2024-03-25T01:05:27;8.70;;;2.25;;
12986;SDS011;58897;51.960;5.582;2024-03-25T01:07:53;6.40;;;2.05;;
12986;SDS011;58897;51.960;5.582;2024-03-25T01:10:18;5.88;;;1.83;;
12986;SDS011;58897;51.960;5.582;2024-03-25T01:12:44;2.40;;;1.48;;
12986;SDS011;58897;51.960;5.582;2024-03-25T01:17:37;5.03;;;2.05;;
12986;SDS011;58897;51.960;5.582;2024-03-25T01:20:06;2.92;;;1.48;;
12986;SDS011;58897;51.960;5.582;2024-03-25T01:22:31;8.90;;;2.92;;
12986;SDS011;58897;51.960;5.582;2024-03-25T01:24:57;2.50;;;1.60;;
12986;SDS011;58897;51.960;5.582;2024-03-25T01:27:23;4.38;;;2.38;;
12986;SDS011;58897;51.960;5.582;2024-03-25T01:29:49;8.32;;;2.55;;
12986;SDS011;58897;51.960;5.582;2024-03-25T01:32:14;3.58;;;2.05;;
12986;SDS011;58897;51.960;5.582;2024-03-25T01:34:40;7.38;;;3.38;;
12986;SDS011;58897;51.960;5.582;2024-03-25T01:37:06;5.32;;;2.60;;
12986;SDS011;58897;51.960;5.582;2024-03-25T01:39:32;7.45;;;1.92;;
12986;SDS011;58897;51.960;5.582;2024-03-25T01:41:58;4.50;;;2.50;;
12986;SDS011;58897;51.960;5.582;2024-03-25T01:44:24;2.88;;;1.60;;
12986;SDS011;58897;51.960;5.582;2024-03-25T01:46:49;9.68;;;2.13;;
12986;SDS011;58897;51.960;5.582;2024-03-25T01:49:17;6.30;;;2.42;;
12986;SDS011;58897;51.960;5.582;2024-03-25T01:51:45;5.70;;;2.17;;
12986;SDS011;58897;51.960;5.582;2024-03-25T01:54:11;4.78;;;2.03;;
12986;SDS011;58897;51.960;5.582;2024-03-25T01:56:39;11.30;;;2.78;;
12986;SDS011;58897;51.960;5.582;2024-03-25T01:59:07;6.43;;;1.98;;
12986;SDS011;58897;51.960;5.582;2024-03-25T02:01:33;3.53;;;2.35;;
12986;SDS011;58897;51.960;5.582;2024-03-25T02:03:59;6.30;;;2.90;;
12986;SDS011;58897;51.960;5.582;2024-03-25T02:06:26;9.13;;;1.98;;
12986;SDS011;58897;51.960;5.582;2024-03-25T02:08:54;4.20;;;2.03;;
12986;SDS011;58897;51.960;5.582;2024-03-25T02:11:21;6.07;;;1.90;;
12986;SDS011;58897;51.960;5.582;2024-03-25T02:13:48;4.38;;;2.17;;
12986;SDS011;58897;51.960;5.582;2024-03-25T02:16:14;6.95;;;2.25;;
12986;SDS011;58897;51.960;5.582;2024-03-25T02:18:40;3.20;;;1.83;;
12986;SDS011;58897;51.960;5.582;2024-03-25T02:21:06;4.65;;;2.00;;
12986;SDS011;58897;51.960;5.582;2024-03-25T02:23:32;9.50;;;1.95;;
12986;SDS011;58897;51.960;5.582;2024-03-25T02:25:59;4.50;;;2.00;;
12986;SDS011;58897;51.960;5.582;2024-03-25T02:28:25;4.97;;;2.13;;
12986;SDS011;58897;51.960;5.582;2024-03-25T02:30:51;5.78;;;2.33;;
12986;SDS011;58897;51.960;5.582;2024-03-25T02:33:16;7.60;;;1.92;;
12986;SDS011;58897;51.960;5.582;2024-03-25T02:35:42;5.57;;;2.83;;
12986;SDS011;58897;51.960;5.582;2024-03-25T02:38:09;5.82;;;1.60;;
12986;SDS011;58897;51.960;5.582;2024-03-25T02:40:35;4.97;;;2.25;;
12986;SDS011;58897;51.960;5.582;2024-03-25T02:43:01;10.18;;;2.05;;
12986;SDS011;58897;51.960;5.582;2024-03-25T02:45:27;7.15;;;1.83;;
12986;SDS011;58897;51.960;5.582;2024-03-25T02:47:54;5.88;;;2.55;;
12986;SDS011;58897;51.960;5.582;2024-03-25T02:50:20;2.58;;;1.40;;
12986;SDS011;58897;51.960;5.582;2024-03-25T02:52:46;3.63;;;1.83;;
12986;SDS011;58897;51.960;5.582;2024-03-25T02:55:12;2.95;;;1.30;;
12986;SDS011;58897;51.960;5.582;2024-03-25T02:57:37;9.57;;;2.60;;
12986;SDS011;58897;51.960;5.582;2024-03-25T03:00:03;5.15;;;1.75;;
12986;SDS011;58897;51.960;5.582;2024-03-25T03:02:29;5.10;;;1.98;;
12986;SDS011;58897;51.960;5.582;2024-03-25T03:04:55;5.53;;;2.33;;
12986;SDS011;58897;51.960;5.582;2024-03-25T03:07:21;3.92;;;2.00;;
12986;SDS011;58897;51.960;5.582;2024-03-25T03:09:46;4.00;;;2.42;;
12986;SDS011;58897;51.960;5.582;2024-03-25T03:12:12;3.83;;;2.10;;
12986;SDS011;58897;51.960;5.582;2024-03-25T03:14:38;4.13;;;2.20;;
12986;SDS011;58897;51.960;5.582;2024-03-25T03:17:03;9.40;;;2.40;;
12986;SDS011;58897;51.960;5.582;2024-03-25T03:19:30;4.85;;;1.73;;
12986;SDS011;58897;51.960;5.582;2024-03-25T03:21:56;4.85;;;1.30;;
12986;SDS011;58897;51.960;5.582;2024-03-25T03:24:22;3.63;;;2.13;;
12986;SDS011;58897;51.960;5.582;2024-03-25T03:26:48;10.48;;;1.85;;
12986;SDS011;58897;51.960;5.582;2024-03-25T03:29:14;4.07;;;1.73;;
12986;SDS011;58897;51.960;5.582;2024-03-25T03:31:40;4.72;;;2.08;;
12986;SDS011;58897;51.960;5.582;2024-03-25T03:34:06;7.63;;;2.78;;
12986;SDS011;58897;51.960;5.582;2024-03-25T03:36:31;3.60;;;1.80;;
12986;SDS011;58897;51.960;5.582;2024-03-25T03:38:57;7.53;;;2.08;;
12986;SDS011;58897;51.960;5.582;2024-03-25T03:41:23;5.60;;;2.08;;
12986;SDS011;58897;51.960;5.582;2024-03-25T03:43:48;4.88;;;2.20;;
12986;SDS011;58897;51.960;5.582;2024-03-25T03:46:14;4.75;;;1.92;;
12986;SDS011;58897;51.960;5.582;2024-03-25T03:48:39;4.43;;;2.10;;
12986;SDS011;58897;51.960;5.582;2024-03-25T03:51:05;3.72;;;1.60;;
12986;SDS011;58897;51.960;5.582;2024-03-25T03:53:32;6.28;;;1.63;;
12986;SDS011;58897;51.960;5.582;2024-03-25T03:55:59;4.78;;;1.90;;
12986;SDS011;58897;51.960;5.582;2024-03-25T03:58:30;9.73;;;2.42;;
12986;SDS011;58897;51.960;5.582;2024-03-25T04:00:56;3.30;;;1.58;;
12986;SDS011;58897;51.960;5.582;2024-03-25T04:03:22;3.83;;;2.00;;
12986;SDS011;58897;51.960;5.582;2024-03-25T04:05:47;2.42;;;1.30;;
12986;SDS011;58897;51.960;5.582;2024-03-25T04:08:13;1.80;;;1.40;;
12986;SDS011;58897;51.960;5.582;2024-03-25T04:10:39;4.07;;;1.70;;
12986;SDS011;58897;51.960;5.582;2024-03-25T04:13:05;5.22;;;2.15;;
12986;SDS011;58897;51.960;5.582;2024-03-25T04:15:33;5.97;;;2.42;;
12986;SDS011;58897;51.960;5.582;2024-03-25T04:18:02;11.25;;;3.17;;
12986;SDS011;58897;51.960;5.582;2024-03-25T04:20:29;9.60;;;2.08;;
12986;SDS011;58897;51.960;5.582;2024-03-25T04:23:01;7.07;;;1.88;;
12986;SDS011;58897;51.960;5.582;2024-03-25T04:25:26;9.20;;;1.92;;
12986;SDS011;58897;51.960;5.582;2024-03-25T04:27:52;4.53;;;2.40;;
12986;SDS011;58897;51.960;5.582;2024-03-25T04:30:17;8.98;;;2.15;;
12986;SDS011;58897;51.960;5.582;2024-03-25T04:32:43;12.50;;;2.78;;
12986;SDS011;58897;51.960;5.582;2024-03-25T04:35:10;3.72;;;2.30;;
12986;SDS011;58897;51.960;5.582;2024-03-25T04:37:35;5.85;;;2.25;;
12986;SDS011;58897;51.960;5.582;2024-03-25T04:40:04;7.68;;;2.17;;
12986;SDS011;58897;51.960;5.582;2024-03-25T04:42:30;5.65;;;2.10;;
12986;SDS011;58897;51.960;5.582;2024-03-25T04:44:56;9.90;;;2.60;;
12986;SDS011;58897;51.960;5.582;2024-03-25T04:47:22;3.75;;;1.67;;
12986;SDS011;58897;51.960;5.582;2024-03-25T04:49:48;2.90;;;1.80;;
12986;SDS011;58897;51.960;5.582;2024-03-25T04:52:13;6.65;;;2.58;;
12986;SDS011;58897;51.960;5.582;2024-03-25T04:54:42;6.40;;;2.13;;
12986;SDS011;58897;51.960;5.582;2024-03-25T04:57:08;3.85;;;2.00;;
12986;SDS011;58897;51.960;5.582;2024-03-25T04:59:34;10.57;;;3.42;;
12986;SDS011;58897;51.960;5.582;2024-03-25T05:02:00;5.53;;;2.42;;
12986;SDS011;58897;51.960;5.582;2024-03-25T05:04:25;6.95;;;3.17;;
12986;SDS011;58897;51.960;5.582;2024-03-25T05:06:51;6.47;;;2.10;;
12986;SDS011;58897;51.960;5.582;2024-03-25T05:09:17;6.65;;;2.85;;
12986;SDS011;58897;51.960;5.582;2024-03-25T05:11:43;8.13;;;2.60;;
12986;SDS011;58897;51.960;5.582;2024-03-25T05:14:09;7.22;;;2.08;;
12986;SDS011;58897;51.960;5.582;2024-03-25T05:16:35;4.18;;;2.55;;
12986;SDS011;58897;51.960;5.582;2024-03-25T05:19:01;6.60;;;2.50;;
12986;SDS011;58897;51.960;5.582;2024-03-25T05:21:29;7.00;;;1.83;;
12986;SDS011;58897;51.960;5.582;2024-03-25T05:23:56;6.60;;;2.97;;
12986;SDS011;58897;51.960;5.582;2024-03-25T05:26:21;7.63;;;3.22;;
12986;SDS011;58897;51.960;5.582;2024-03-25T05:28:52;6.43;;;2.20;;
12986;SDS011;58897;51.960;5.582;2024-03-25T05:31:18;4.93;;;2.70;;
12986;SDS011;58897;51.960;5.582;2024-03-25T05:33:44;6.95;;;2.38;;
12986;SDS011;58897;51.960;5.582;2024-03-25T05:36:09;8.60;;;2.40;;
12986;SDS011;58897;51.960;5.582;2024-03-25T05:38:35;9.35;;;2.40;;
12986;SDS011;58897;51.960;5.582;2024-03-25T05:41:01;8.15;;;2.70;;
12986;SDS011;58897;51.960;5.582;2024-03-25T05:43:26;5.25;;;2.22;;
12986;SDS011;58897;51.960;5.582;2024-03-25T05:45:52;4.85;;;2.42;;
12986;SDS011;58897;51.960;5.582;2024-03-25T05:48:19;8.07;;;2.55;;
12986;SDS011;58897;51.960;5.582;2024-03-25T05:50:45;8.38;;;3.65;;
12986;SDS011;58897;51.960;5.582;2024-03-25T05:53:11;10.93;;;3.10;;
12986;SDS011;58897;51.960;5.582;2024-03-25T05:55:37;3.55;;;2.00;;
12986;SDS011;58897;51.960;5.582;2024-03-25T05:58:02;8.05;;;3.15;;
12986;SDS011;58897;51.960;5.582;2024-03-25T06:00:31;6.88;;;2.78;;
12986;SDS011;58897;51.960;5.582;2024-03-25T06:02:57;8.23;;;2.78;;
12986;SDS011;58897;51.960;5.582;2024-03-25T06:05:22;4.07;;;2.20;;
12986;SDS011;58897;51.960;5.582;2024-03-25T06:07:48;4.93;;;2.30;;
12986;SDS011;58897;51.960;5.582;2024-03-25T06:10:14;5.38;;;3.53;;
12986;SDS011;58897;51.960;5.582;2024-03-25T06:12:40;4.65;;;2.25;;
12986;SDS011;58897;51.960;5.582;2024-03-25T06:15:06;14.27;;;3.33;;
12986;SDS011;58897;51.960;5.582;2024-03-25T06:19:58;12.57;;;4.22;;
12986;SDS011;58897;51.960;5.582;2024-03-25T06:22:23;5.63;;;2.40;;
12986;SDS011;58897;51.960;5.582;2024-03-25T06:24:49;4.85;;;2.50;;
12986;SDS011;58897;51.960;5.582;2024-03-25T06:29:41;5.68;;;2.40;;
12986;SDS011;58897;51.960;5.582;2024-03-25T06:32:08;12.10;;;4.43;;
12986;SDS011;58897;51.960;5.582;2024-03-25T06:34:52;5.32;;;2.40;;
12986;SDS011;58897;51.960;5.582;2024-03-25T06:37:18;5.30;;;2.25;;
12986;SDS011;58897;51.960;5.582;2024-03-25T06:39:44;4.72;;;2.58;;
12986;SDS011;58897;51.960;5.582;2024-03-25T06:42:09;7.72;;;2.95;;
12986;SDS011;58897;51.960;5.582;2024-03-25T06:44:35;7.65;;;2.72;;
12986;SDS011;58897;51.960;5.582;2024-03-25T06:47:00;9.57;;;3.60;;
12986;SDS011;58897;51.960;5.582;2024-03-25T06:49:26;4.63;;;2.35;;
12986;SDS011;58897;51.960;5.582;2024-03-25T06:51:52;6.38;;;3.13;;
12986;SDS011;58897;51.960;5.582;2024-03-25T06:54:18;4.85;;;2.50;;
12986;SDS011;58897;51.960;5.582;2024-03-25T06:56:43;7.97;;;3.13;;
12986;SDS011;58897;51.960;5.582;2024-03-25T06:59:09;8.73;;;2.80;;
12986;SDS011;58897;51.960;5.582;2024-03-25T07:01:35;8.52;;;3.35;;
12986;SDS011;58897;51.960;5.582;2024-03-25T07:04:00;5.18;;;2.95;;
12986;SDS011;58897;51.960;5.582;2024-03-25T07:06:26;4.57;;;2.25;;
12986;SDS011;58897;51.960;5.582;2024-03-25T07:08:52;6.10;;;2.50;;
12986;SDS011;58897;51.960;5.582;2024-03-25T07:11:18;11.68;;;2.70;;
12986;SDS011;58897;51.960;5.582;2024-03-25T07:13:44;9.63;;;2.78;;
12986;SDS011;58897;51.960;5.582;2024-03-25T07:16:10;10.00;;;2.95;;
12986;SDS011;58897;51.960;5.582;2024-03-25T07:18:36;4.63;;;2.33;;
12986;SDS011;58897;51.960;5.582;2024-03-25T07:21:01;5.93;;;2.22;;
12986;SDS011;58897;51.960;5.582;2024-03-25T07:23:27;4.57;;;2.35;;
12986;SDS011;58897;51.960;5.582;2024-03-25T07:25:52;11.90;;;2.95;;
12986;SDS011;58897;51.960;5.582;2024-03-25T07:28:18;6.28;;;2.85;;
12986;SDS011;58897;51.960;5.582;2024-03-25T07:30:44;11.15;;;3.60;;
12986;SDS011;58897;51.960;5.582;2024-03-25T07:33:10;9.25;;;3.10;;
12986;SDS011;58897;51.960;5.582;2024-03-25T07:35:35;6.15;;;2.05;;
12986;SDS011;58897;51.960;5.582;2024-03-25T07:38:01;8.82;;;2.65;;
12986;SDS011;58897;51.960;5.582;2024-03-25T07:40:28;5.00;;;1.80;;
12986;SDS011;58897;51.960;5.582;2024-03-25T07:42:54;7.38;;;3.10;;
12986;SDS011;58897;51.960;5.582;2024-03-25T07:45:20;7.15;;;2.60;;
12986;SDS011;58897;51.960;5.582;2024-03-25T07:47:45;5.45;;;2.67;;
12986;SDS011;58897;51.960;5.582;2024-03-25T07:50:11;7.35;;;3.08;;
12986;SDS011;58897;51.960;5.582;2024-03-25T07:52:37;9.25;;;2.60;;
12986;SDS011;58897;51.960;5.582;2024-03-25T07:55:08;8.27;;;3.00;;
12986;SDS011;58897;51.960;5.582;2024-03-25T07:57:34;7.43;;;2.97;;
12986;SDS011;58897;51.960;5.582;2024-03-25T08:00:01;15.13;;;3.30;;
12986;SDS011;58897;51.960;5.582;2024-03-25T08:02:27;6.57;;;3.25;;
12986;SDS011;58897;51.960;5.582;2024-03-25T08:04:52;7.55;;;3.63;;
12986;SDS011;58897;51.960;5.582;2024-03-25T08:07:18;18.77;;;3.72;;
12986;SDS011;58897;51.960;5.582;2024-03-25T08:09:43;6.05;;;2.95;;
12986;SDS011;58897;51.960;5.582;2024-03-25T08:12:09;16.30;;;3.72;;
12986;SDS011;58897;51.960;5.582;2024-03-25T08:14:35;11.00;;;4.32;;
12986;SDS011;58897;51.960;5.582;2024-03-25T08:17:00;16.80;;;3.22;;
12986;SDS011;58897;51.960;5.582;2024-03-25T08:19:26;9.25;;;3.30;;
12986;SDS011;58897;51.960;5.582;2024-03-25T08:21:51;10.65;;;3.83;;
12986;SDS011;58897;51.960;5.582;2024-03-25T08:24:17;12.45;;;4.10;;
12986;SDS011;58897;51.960;5.582;2024-03-25T08:26:43;11.40;;;3.30;;
12986;SDS011;58897;51.960;5.582;2024-03-25T08:29:08;12.07;;;3.47;;
12986;SDS011;58897;51.960;5.582;2024-03-25T08:31:34;7.18;;;3.80;;
12986;SDS011;58897;51.960;5.582;2024-03-25T08:34:00;6.78;;;3.38;;
12986;SDS011;58897;51.960;5.582;2024-03-25T08:36:25;7.15;;;3.63;;
12986;SDS011;58897;51.960;5.582;2024-03-25T08:38:51;8.68;;;3.15;;
12986;SDS011;58897;51.960;5.582;2024-03-25T08:41:17;8.65;;;4.10;;
12986;SDS011;58897;51.960;5.582;2024-03-25T08:43:42;6.60;;;3.20;;
12986;SDS011;58897;51.960;5.582;2024-03-25T08:46:08;5.50;;;3.25;;
12986;SDS011;58897;51.960;5.582;2024-03-25T08:48:33;11.82;;;3.83;;
12986;SDS011;58897;51.960;5.582;2024-03-25T08:50:59;9.07;;;3.35;;
12986;SDS011;58897;51.960;5.582;2024-03-25T08:53:25;10.88;;;3.70;;
12986;SDS011;58897;51.960;5.582;2024-03-25T08:55:50;6.78;;;3.40;;
12986;SDS011;58897;51.960;5.582;2024-03-25T08:58:16;10.48;;;3.72;;
12986;SDS011;58897;51.960;5.582;2024-03-25T09:00:42;11.02;;;3.88;;
12986;SDS011;58897;51.960;5.582;2024-03-25T09:03:08;11.07;;;4.18;;
12986;SDS011;58897;51.960;5.582;2024-03-25T09:05:36;10.40;;;4.32;;
12986;SDS011;58897;51.960;5.582;2024-03-25T09:08:04;10.32;;;4.57;;
12986;SDS011;58897;51.960;5.582;2024-03-25T09:10:31;12.48;;;4.38;;
12986;SDS011;58897;51.960;5.582;2024-03-25T09:13:15;14.75;;;5.07;;
12986;SDS011;58897;51.960;5.582;2024-03-25T09:15:41;7.40;;;3.97;;
12986;SDS011;58897;51.960;5.582;2024-03-25T09:18:06;9.02;;;4.22;;
12986;SDS011;58897;51.960;5.582;2024-03-25T09:20:32;13.82;;;4.10;;
12986;SDS011;58897;51.960;5.582;2024-03-25T09:22:58;6.88;;;3.80;;
12986;SDS011;58897;51.960;5.582;2024-03-25T09:25:23;9.15;;;3.50;;
12986;SDS011;58897;51.960;5.582;2024-03-25T09:27:49;8.57;;;3.38;;
12986;SDS011;58897;51.960;5.582;2024-03-25T09:30:15;10.57;;;4.20;;
12986;SDS011;58897;51.960;5.582;2024-03-25T09:32:43;11.68;;;3.60;;
12986;SDS011;58897;51.960;5.582;2024-03-25T09:35:09;11.93;;;4.15;;
12986;SDS011;58897;51.960;5.582;2024-03-25T09:40:01;10.20;;;3.20;;
12986;SDS011;58897;51.960;5.582;2024-03-25T09:42:41;7.75;;;2.85;;
12986;SDS011;58897;51.960;5.582;2024-03-25T09:45:29;6.15;;;2.90;;
12986;SDS011;58897;51.960;5.582;2024-03-25T09:47:55;6.38;;;2.05;;
12986;SDS011;58897;51.960;5.582;2024-03-25T09:50:21;10.93;;;3.50;;
12986;SDS011;58897;51.960;5.582;2024-03-25T09:55:13;10.32;;;4.25;;
12986;SDS011;58897;51.960;5.582;2024-03-25T09:57:39;5.38;;;2.70;;
12986;SDS011;58897;51.960;5.582;2024-03-25T10:00:07;11.00;;;3.75;;
12986;SDS011;58897;51.960;5.582;2024-03-25T10:02:34;8.95;;;2.95;;
12986;SDS011;58897;51.960;5.582;2024-03-25T10:05:02;9.60;;;4.28;;
12986;SDS011;58897;51.960;5.582;2024-03-25T10:07:28;6.93;;;3.72;;
12986;SDS011;58897;51.960;5.582;2024-03-25T10:09:54;6.43;;;2.97;;
12986;SDS011;58897;51.960;5.582;2024-03-25T10:12:19;10.32;;;3.55;;
12986;SDS011;58897;51.960;5.582;2024-03-25T10:14:45;12.55;;;6.07;;
12986;SDS011;58897;51.960;5.582;2024-03-25T10:17:11;9.27;;;4.20;;
12986;SDS011;58897;51.960;5.582;2024-03-25T10:19:37;6.57;;;3.33;;
12986;SDS011;58897;51.960;5.582;2024-03-25T10:24:42;8.55;;;3.80;;
12986;SDS011;58897;51.960;5.582;2024-03-25T10:27:30;7.65;;;3.10;;
12986;SDS011;58897;51.960;5.582;2024-03-25T10:29:54;10.80;;;4.10;;
12986;SDS011;58897;51.960;5.582;2024-03-25T10:32:20;9.50;;;4.00;;
12986;SDS011;58897;51.960;5.582;2024-03-25T10:34:47;4.95;;;3.08;;
12986;SDS011;58897;51.960;5.582;2024-03-25T10:37:13;6.70;;;3.90;;
12986;SDS011;58897;51.960;5.582;2024-03-25T10:39:47;10.00;;;3.75;;
12986;SDS011;58897;51.960;5.582;2024-03-25T10:42:19;8.70;;;3.33;;
12986;SDS011;58897;51.960;5.582;2024-03-25T10:44:49;7.68;;;3.60;;
12986;SDS011;58897;51.960;5.582;2024-03-25T10:47:21;7.22;;;4.15;;
12986;SDS011;58897;51.960;5.582;2024-03-25T10:52:24;9.93;;;3.85;;
12986;SDS011;58897;51.960;5.582;2024-03-25T10:54:50;10.20;;;4.20;;
12986;SDS011;58897;51.960;5.582;2024-03-25T10:57:16;5.75;;;3.72;;
12986;SDS011;58897;51.960;5.582;2024-03-25T10:59:43;8.90;;;4.47;;
12986;SDS011;58897;51.960;5.582;2024-03-25T11:02:10;10.55;;;3.92;;
12986;SDS011;58897;51.960;5.582;2024-03-25T11:04:37;11.57;;;4.03;;
12986;SDS011;58897;51.960;5.582;2024-03-25T11:07:07;7.53;;;3.70;;
12986;SDS011;58897;51.960;5.582;2024-03-25T11:09:36;9.55;;;3.97;;
12986;SDS011;58897;51.960;5.582;2024-03-25T11:12:02;9.68;;;4.50;;
12986;SDS011;58897;51.960;5.582;2024-03-25T11:14:28;8.45;;;3.47;;
12986;SDS011;58897;51.960;5.582;2024-03-25T11:16:54;5.72;;;3.30;;
12986;SDS011;58897;51.960;5.582;2024-03-25T11:21:50;7.35;;;3.40;;
12986;SDS011;58897;51.960;5.582;2024-03-25T11:24:25;7.57;;;3.80;;
12986;SDS011;58897;51.960;5.582;2024-03-25T11:26:52;5.75;;;3.20;;
12986;SDS011;58897;51.960;5.582;2024-03-25T11:29:18;5.88;;;3.78;;
12986;SDS011;58897;51.960;5.582;2024-03-25T11:34:10;4.68;;;2.72;;
12986;SDS011;58897;51.960;5.582;2024-03-25T11:36:35;12.95;;;3.42;;
12986;SDS011;58897;51.960;5.582;2024-03-25T11:41:41;4.50;;;3.28;;
12986;SDS011;58897;51.960;5.582;2024-03-25T11:44:08;3.92;;;2.55;;
12986;SDS011;58897;51.960;5.582;2024-03-25T11:46:37;5.40;;;3.10;;
12986;SDS011;58897;51.960;5.582;2024-03-25T11:49:05;6.03;;;3.05;;
12986;SDS011;58897;51.960;5.582;2024-03-25T11:51:32;7.57;;;3.13;;
12986;SDS011;58897;51.960;5.582;2024-03-25T11:53:58;9.30;;;3.65;;
12986;SDS011;58897;51.960;5.582;2024-03-25T11:58:50;10.50;;;3.70;;
12986;SDS011;58897;51.960;5.582;2024-03-25T12:01:16;7.53;;;3.55;;
12986;SDS011;58897;51.960;5.582;2024-03-25T12:03:42;10.50;;;5.03;;
12986;SDS011;58897;51.960;5.582;2024-03-25T12:08:33;5.55;;;2.85;;
12986;SDS011;58897;51.960;5.582;2024-03-25T12:11:02;6.50;;;2.88;;
12986;SDS011;58897;51.960;5.582;2024-03-25T12:13:42;3.88;;;2.85;;
12986;SDS011;58897;51.960;5.582;2024-03-25T12:16:09;5.22;;;3.17;;
12986;SDS011;58897;51.960;5.582;2024-03-25T12:18:35;5.18;;;2.42;;
12986;SDS011;58897;51.960;5.582;2024-03-25T12:21:05;7.78;;;3.38;;
12986;SDS011;58897;51.960;5.582;2024-03-25T12:23:31;6.70;;;3.72;;
12986;SDS011;58897;51.960;5.582;2024-03-25T12:26:01;6.57;;;3.33;;
12986;SDS011;58897;51.960;5.582;2024-03-25T12:28:28;5.32;;;3.10;;
12986;SDS011;58897;51.960;5.582;2024-03-25T12:30:54;5.35;;;3.17;;
12986;SDS011;58897;51.960;5.582;2024-03-25T12:33:23;7.43;;;3.28;;
12986;SDS011;58897;51.960;5.582;2024-03-25T12:35:50;4.53;;;3.13;;
12986;SDS011;58897;51.960;5.582;2024-03-25T12:40:48;6.00;;;3.85;;
12986;SDS011;58897;51.960;5.582;2024-03-25T12:45:42;5.47;;;2.97;;
12986;SDS011;58897;51.960;5.582;2024-03-25T12:48:08;6.22;;;3.35;;
12986;SDS011;58897;51.960;5.582;2024-03-25T12:50:34;6.75;;;3.60;;
12986;SDS011;58897;51.960;5.582;2024-03-25T12:53:00;7.82;;;3.25;;
12986;SDS011;58897;51.960;5.582;2024-03-25T12:55:28;8.50;;;3.83;;
12986;SDS011;58897;51.960;5.582;2024-03-25T12:57:57;6.57;;;3.42;;
12986;SDS011;58897;51.960;5.582;2024-03-25T13:02:48;7.20;;;3.63;;
12986;SDS011;58897;51.960;5.582;2024-03-25T13:05:14;5.90;;;2.97;;
12986;SDS011;58897;51.960;5.582;2024-03-25T13:10:05;4.55;;;3.10;;
12986;SDS011;58897;51.960;5.582;2024-03-25T13:12:32;5.60;;;3.05;;
12986;SDS011;58897;51.960;5.582;2024-03-25T13:17:25;5.75;;;3.03;;
12986;SDS011;58897;51.960;5.582;2024-03-25T13:22:16;4.85;;;2.65;;
12986;SDS011;58897;51.960;5.582;2024-03-25T13:27:07;7.10;;;3.05;;
12986;SDS011;58897;51.960;5.582;2024-03-25T13:32:01;8.20;;;2.88;;
12986;SDS011;58897;51.960;5.582;2024-03-25T13:36:53;6.93;;;3.00;;
12986;SDS011;58897;51.960;5.582;2024-03-25T13:41:44;6.32;;;2.75;;
12986;SDS011;58897;51.960;5.582;2024-03-25T13:44:11;7.57;;;3.03;;
12986;SDS011;58897;51.960;5.582;2024-03-25T13:49:02;5.75;;;3.05;;
12986;SDS011;58897;51.960;5.582;2024-03-25T13:53:53;10.27;;;3.42;;
12986;SDS011;58897;51.960;5.582;2024-03-25T13:58:44;7.15;;;2.90;;
12986;SDS011;58897;51.960;5.582;2024-03-25T14:03:36;5.35;;;2.88;;
12986;SDS011;58897;51.960;5.582;2024-03-25T14:08:27;4.78;;;2.58;;
12986;SDS011;58897;51.960;5.582;2024-03-25T14:13:25;5.88;;;2.80;;
12986;SDS011;58897;51.960;5.582;2024-03-25T14:18:17;9.65;;;3.40;;
12986;SDS011;58897;51.960;5.582;2024-03-25T14:23:08;5.25;;;2.90;;
12986;SDS011;58897;51.960;5.582;2024-03-25T14:27:59;5.38;;;2.80;;
12986;SDS011;58897;51.960;5.582;2024-03-25T14:32:51;3.97;;;2.60;;
12986;SDS011;58897;51.960;5.582;2024-03-25T14:37:42;4.60;;;2.20;;
12986;SDS011;58897;51.960;5.582;2024-03-25T14:42:34;6.85;;;3.10;;
12986;SDS011;58897;51.960;5.582;2024-03-25T14:45:00;6.47;;;3.35;;
12986;SDS011;58897;51.960;5.582;2024-03-25T14:49:51;6.03;;;2.80;;
12986;SDS011;58897;51.960;5.582;2024-03-25T14:54:42;4.95;;;2.80;;
12986;SDS011;58897;51.960;5.582;2024-03-25T14:59:33;4.72;;;2.50;;
12986;SDS011;58897;51.960;5.582;2024-03-25T15:04:25;6.30;;;3.10;;
12986;SDS011;58897;51.960;5.582;2024-03-25T15:09:17;5.80;;;2.60;;
12986;SDS011;58897;51.960;5.582;2024-03-25T15:11:43;5.05;;;2.47;;
12986;SDS011;58897;51.960;5.582;2024-03-25T15:14:08;4.45;;;2.50;;
12986;SDS011;58897;51.960;5.582;2024-03-25T15:16:34;5.47;;;3.13;;
12986;SDS011;58897;51.960;5.582;2024-03-25T15:19:00;5.80;;;2.85;;
12986;SDS011;58897;51.960;5.582;2024-03-25T15:21:25;4.50;;;2.13;;
12986;SDS011;58897;51.960;5.582;2024-03-25T15:26:17;3.85;;;2.13;;
12986;SDS011;58897;51.960;5.582;2024-03-25T15:28:42;6.75;;;2.80;;
12986;SDS011;58897;51.960;5.582;2024-03-25T15:31:08;5.88;;;2.85;;
12986;SDS011;58897;51.960;5.582;2024-03-25T15:35:59;4.38;;;2.67;;
12986;SDS011;58897;51.960;5.582;2024-03-25T15:38:25;4.63;;;2.70;;
12986;SDS011;58897;51.960;5.582;2024-03-25T15:40:50;4.00;;;2.50;;
12986;SDS011;58897;51.960;5.582;2024-03-25T15:43:18;6.85;;;3.00;;
12986;SDS011;58897;51.960;5.582;2024-03-25T15:48:22;5.38;;;2.25;;
12986;SDS011;58897;51.960;5.582;2024-03-25T15:50:48;4.40;;;2.42;;
12986;SDS011;58897;51.960;5.582;2024-03-25T15:53:14;5.32;;;2.50;;
12986;SDS011;58897;51.960;5.582;2024-03-25T15:58:07;4.28;;;2.58;;
12986;SDS011;58897;51.960;5.582;2024-03-25T16:00:33;6.38;;;2.50;;
12986;SDS011;58897;51.960;5.582;2024-03-25T16:03:00;6.50;;;3.15;;
12986;SDS011;58897;51.960;5.582;2024-03-25T16:05:26;4.65;;;2.30;;
12986;SDS011;58897;51.960;5.582;2024-03-25T16:07:52;6.68;;;2.78;;
12986;SDS011;58897;51.960;5.582;2024-03-25T16:10:24;4.40;;;2.35;;
12986;SDS011;58897;51.960;5.582;2024-03-25T16:12:57;5.50;;;2.45;;
12986;SDS011;58897;51.960;5.582;2024-03-25T16:15:24;4.25;;;2.05;;
12986;SDS011;58897;51.960;5.582;2024-03-25T16:20:16;5.97;;;2.90;;
12986;SDS011;58897;51.960;5.582;2024-03-25T16:22:42;6.45;;;2.97;;
12986;SDS011;58897;51.960;5.582;2024-03-25T16:25:07;6.28;;;2.80;;
12986;SDS011;58897;51.960;5.582;2024-03-25T16:29:59;5.38;;;2.60;;
12986;SDS011;58897;51.960;5.582;2024-03-25T16:32:30;6.20;;;2.85;;